Time;durP1;ratioP1;P1;durP2;ratioP2;P2;SDS_P1;SDS_P2;PMS_P1;PMS_P2;Temp;Humidity;BMP_temperature;BMP_pressure;BME280_temperature;BME280_humidity;BME280_pressure;Samples;Min_cycle;Max_cycle;Signal;HPM_P1;HPM_P2
2021/07/01 00:00:24;;;;;;;0.80;0.80;;;;;;;13.92;100.00;96229.50;5096486;28;20515;-60
2021/07/01 00:02:49;;;;;;;0.70;0.70;;;;;;;13.82;100.00;96239.19;5092211;28;20194;-60
2021/07/01 00:05:16;;;;;;;1.17;0.73;;;;;;;13.88;100.00;96241.63;5076126;28;20198;-60
2021/07/01 00:07:42;;;;;;;0.70;0.70;;;;;;;13.68;100.00;96236.13;5094381;28;20178;-61
2021/07/01 00:10:13;;;;;;;0.90;0.90;;;;;;;13.60;100.00;96241.03;5078130;28;20503;-62
2021/07/01 00:12:38;;;;;;;0.70;0.70;;;;;;;13.71;100.00;96238.28;5095804;28;20495;-62
2021/07/01 00:15:06;;;;;;;0.93;0.63;;;;;;;13.50;100.00;96240.94;5096126;28;20479;-60
2021/07/01 00:17:32;;;;;;;0.73;0.73;;;;;;;13.43;100.00;96239.28;5096250;28;20536;-60
2021/07/01 00:19:59;;;;;;;2.70;0.60;;;;;;;13.70;100.00;96236.66;5096111;28;20412;-62
2021/07/01 00:22:25;;;;;;;0.53;0.53;;;;;;;13.51;100.00;96240.69;5077504;28;20416;-62
2021/07/01 00:24:50;;;;;;;0.60;0.60;;;;;;;13.64;100.00;96242.16;5075681;28;20436;-60
2021/07/01 00:27:15;;;;;;;0.60;0.60;;;;;;;13.77;100.00;96231.97;5075660;28;20182;-61
2021/07/01 00:29:41;;;;;;;0.70;0.70;;;;;;;13.75;100.00;96235.94;5075922;28;20208;-62
2021/07/01 00:32:07;;;;;;;0.90;0.60;;;;;;;13.93;100.00;96235.59;5075140;28;20213;-60
2021/07/01 00:34:32;;;;;;;1.73;0.53;;;;;;;14.25;100.00;96233.78;5092959;28;20194;-61
2021/07/01 00:36:58;;;;;;;1.23;0.70;;;;;;;14.20;100.00;96241.66;5096039;28;20177;-60
2021/07/01 00:39:23;;;;;;;2.00;0.97;;;;;;;13.90;100.00;96244.81;5095772;28;20191;-60
2021/07/01 00:41:49;;;;;;;0.83;0.83;;;;;;;13.91;100.00;96238.50;5095357;28;20166;-62
2021/07/01 00:44:14;;;;;;;1.73;0.70;;;;;;;13.90;100.00;96247.44;5095581;28;20688;-60
2021/07/01 00:46:39;;;;;;;0.70;0.70;;;;;;;13.92;100.00;96245.34;5095539;28;20192;-60
2021/07/01 00:49:05;;;;;;;0.70;0.70;;;;;;;13.67;100.00;96247.72;5079517;28;20179;-62
2021/07/01 00:51:30;;;;;;;1.37;0.70;;;;;;;13.91;100.00;96245.63;5075064;28;20190;-61
2021/07/01 00:53:56;;;;;;;1.63;0.90;;;;;;;13.76;100.00;96242.81;5075078;28;20191;-62
2021/07/01 00:56:22;;;;;;;0.60;0.60;;;;;;;13.71;100.00;96243.56;5075198;28;20171;-61
2021/07/01 00:58:53;;;;;;;0.60;0.50;;;;;;;13.44;100.00;96240.84;5075345;28;20171;-60
2021/07/01 01:01:18;;;;;;;1.00;0.53;;;;;;;13.71;100.00;96233.00;5075561;28;20432;-62
2021/07/01 01:03:43;;;;;;;0.63;0.63;;;;;;;13.81;100.00;96232.28;5077307;28;20473;-62
2021/07/01 01:06:13;;;;;;;1.07;0.63;;;;;;;14.08;100.00;96243.66;5093756;28;20231;-62
2021/07/01 01:08:39;;;;;;;7.53;1.00;;;;;;;14.13;100.00;96249.78;5095341;28;20279;-62
2021/07/01 01:11:05;;;;;;;0.70;0.57;;;;;;;14.11;100.00;96241.31;5095056;28;20539;-60
2021/07/01 01:13:30;;;;;;;0.60;0.60;;;;;;;13.91;100.00;96238.50;5094623;28;20834;-61
2021/07/01 01:16:03;;;;;;;0.40;0.40;;;;;;;13.99;100.00;96251.25;5095509;28;20231;-62
2021/07/01 01:18:30;;;;;;;0.50;0.50;;;;;;;13.96;100.00;96246.47;5076899;28;20186;-60
2021/07/01 01:20:57;;;;;;;1.03;0.70;;;;;;;14.06;100.00;96246.53;5094635;28;20416;-60
2021/07/01 01:23:23;;;;;;;1.07;0.67;;;;;;;14.18;100.00;96241.91;5094450;28;20454;-60
2021/07/01 01:25:50;;;;;;;0.97;0.40;;;;;;;13.76;100.00;96243.59;5095040;28;20954;-62
2021/07/01 01:28:17;;;;;;;1.00;0.43;;;;;;;13.93;100.00;96240.88;5094621;28;20581;-61
2021/07/01 01:30:43;;;;;;;0.60;0.60;;;;;;;13.97;100.00;96248.03;5094658;28;20404;-62
2021/07/01 01:33:09;;;;;;;0.50;0.43;;;;;;;14.12;100.00;96231.53;5066122;28;20950;-60
2021/07/01 01:35:36;;;;;;;0.40;0.40;;;;;;;14.38;100.00;96239.47;5074428;28;20409;-60
2021/07/01 01:38:03;;;;;;;0.70;0.43;;;;;;;14.12;100.00;96242.09;5078631;28;21545;-61
2021/07/01 01:40:29;;;;;;;0.70;0.70;;;;;;;14.01;100.00;96241.22;5076574;28;20747;-60
2021/07/01 01:42:54;;;;;;;0.77;0.77;;;;;;;14.20;100.00;96234.50;5094198;28;20419;-62
2021/07/01 01:45:20;;;;;;;0.60;0.50;;;;;;;14.23;100.00;96246.44;5094369;28;20190;-61
2021/07/01 01:47:47;;;;;;;0.80;0.60;;;;;;;13.98;100.00;96236.44;5086022;28;20206;-62
2021/07/01 01:50:19;;;;;;;0.40;0.40;;;;;;;13.96;100.00;96240.38;5074200;28;20518;-62
2021/07/01 01:52:45;;;;;;;0.60;0.57;;;;;;;14.04;100.00;96242.56;5073691;28;20467;-62
2021/07/01 01:55:12;;;;;;;0.97;0.50;;;;;;;14.16;100.00;96243.22;5074014;28;20425;-61
2021/07/01 01:57:41;;;;;;;0.70;0.70;;;;;;;14.30;100.00;96239.94;5073883;28;20980;-62
2021/07/01 02:00:07;;;;;;;0.57;0.57;;;;;;;14.24;100.00;96248.06;5073607;28;20448;-60
2021/07/01 02:02:32;;;;;;;0.77;0.70;;;;;;;14.07;100.00;96242.88;5093812;28;20428;-60
2021/07/01 02:04:58;;;;;;;0.60;0.40;;;;;;;14.40;100.00;96241.88;5092903;28;20436;-61
2021/07/01 02:07:23;;;;;;;0.60;0.60;;;;;;;14.21;100.00;96243.25;5094072;28;20290;-60
2021/07/01 02:09:48;;;;;;;0.63;0.60;;;;;;;14.32;100.00;96244.97;5082286;28;20256;-61
2021/07/01 02:12:14;;;;;;;1.47;0.63;;;;;;;14.37;100.00;96248.44;5073289;28;20679;-60
2021/07/01 02:14:39;;;;;;;0.70;0.70;;;;;;;14.20;100.00;96253.00;5073758;28;20278;-62
2021/07/01 02:17:04;;;;;;;2.10;0.80;;;;;;;13.94;100.00;96259.13;5073898;28;20535;-60
2021/07/01 02:19:30;;;;;;;0.93;0.50;;;;;;;13.99;100.00;96251.25;5073652;28;20171;-60
2021/07/01 02:21:55;;;;;;;1.00;0.50;;;;;;;14.13;100.00;96249.78;5073397;28;20251;-61
2021/07/01 02:24:21;;;;;;;1.00;0.60;;;;;;;14.22;100.00;96256.19;5082349;28;20190;-60
2021/07/01 02:26:46;;;;;;;1.27;0.50;;;;;;;14.16;100.00;96261.72;5078755;28;20253;-59
2021/07/01 02:29:11;;;;;;;0.80;0.70;;;;;;;14.10;100.00;96257.41;5094165;28;20177;-60
2021/07/01 02:31:37;;;;;;;0.50;0.50;;;;;;;14.28;100.00;96255.25;5093175;28;20236;-61
2021/07/01 02:34:02;;;;;;;0.97;0.50;;;;;;;14.40;100.00;96258.50;5093679;28;20255;-61
2021/07/01 02:36:28;;;;;;;0.90;0.50;;;;;;;14.46;100.00;96258.56;5093629;28;20238;-61
2021/07/01 02:38:53;;;;;;;1.00;0.60;;;;;;;14.31;100.00;96261.88;5092280;28;20190;-61
2021/07/01 02:41:18;;;;;;;0.60;0.57;;;;;;;14.42;100.00;96259.06;5073276;28;20167;-61
2021/07/01 02:43:44;;;;;;;0.93;0.53;;;;;;;14.58;100.00;96260.00;5073009;28;20190;-60
2021/07/01 02:46:09;;;;;;;1.33;0.70;;;;;;;14.68;100.00;96254.78;5073304;28;20278;-62
2021/07/01 02:48:34;;;;;;;0.90;0.70;;;;;;;14.89;100.00;96261.00;5073553;28;20248;-60
2021/07/01 02:51:00;;;;;;;0.50;0.50;;;;;;;15.09;100.00;96263.78;5073392;28;20560;-62
2021/07/01 02:53:25;;;;;;;2.73;0.70;;;;;;;15.28;100.00;96259.63;5073649;28;20190;-62
2021/07/01 02:55:50;;;;;;;0.73;0.73;;;;;;;15.21;100.00;96267.81;5093292;28;20253;-61
2021/07/01 02:58:16;;;;;;;0.83;0.83;;;;;;;14.82;100.00;96265.72;5093346;28;20174;-62
2021/07/01 03:00:41;;;;;;;0.63;0.63;;;;;;;14.82;100.00;96265.72;5093400;28;20170;-62
2021/07/01 03:03:06;;;;;;;0.47;0.47;;;;;;;14.54;100.00;96263.38;5093019;28;20170;-62
2021/07/01 03:05:32;;;;;;;0.60;0.60;;;;;;;14.72;100.00;96261.16;5093340;28;20170;-60
2021/07/01 03:07:57;;;;;;;1.47;0.90;;;;;;;14.57;100.00;96260.22;5093368;28;20170;-61
2021/07/01 03:10:23;;;;;;;0.60;0.60;;;;;;;14.68;100.00;96265.34;5075230;28;20198;-62
2021/07/01 03:12:48;;;;;;;1.10;0.90;;;;;;;14.61;100.00;96262.13;5077368;28;20205;-62
2021/07/01 03:15:13;;;;;;;0.60;0.60;;;;;;;14.54;100.00;96264.19;5097302;28;20265;-60
2021/07/01 03:17:39;;;;;;;1.57;1.00;;;;;;;14.41;100.00;96261.97;5097563;28;20174;-60
2021/07/01 03:20:05;;;;;;;0.70;0.70;;;;;;;14.71;100.00;96258.78;5097258;28;20165;-60
2021/07/01 03:22:31;;;;;;;1.77;0.80;;;;;;;14.77;100.00;96263.03;5096997;28;20621;-60
2021/07/01 03:24:56;;;;;;;2.07;0.80;;;;;;;14.98;100.00;96254.97;5091058;28;20462;-62
2021/07/01 03:27:22;;;;;;;0.80;0.80;;;;;;;14.73;100.00;96260.09;5094394;28;20209;-62
2021/07/01 03:29:47;;;;;;;0.80;0.80;;;;;;;14.55;100.00;96259.72;5097382;28;20173;-60
2021/07/01 03:32:13;;;;;;;0.63;0.63;;;;;;;14.49;100.00;96258.06;5096720;28;20274;-62
2021/07/01 03:34:38;;;;;;;0.70;0.70;;;;;;;14.32;100.00;96263.47;5096915;28;20281;-60
2021/07/01 03:37:03;;;;;;;1.67;0.87;;;;;;;14.31;100.00;96264.53;5096996;28;20194;-60
2021/07/01 03:39:29;;;;;;;0.60;0.60;;;;;;;14.25;100.00;96250.44;5096932;28;20189;-61
2021/07/01 03:41:54;;;;;;;0.87;0.83;;;;;;;14.05;100.00;96257.38;5080713;28;20595;-62
2021/07/01 03:44:20;;;;;;;0.77;0.77;;;;;;;14.01;100.00;96261.56;5076505;28;20225;-62
2021/07/01 03:46:45;;;;;;;0.90;0.90;;;;;;;13.97;100.00;96258.59;5076457;28;20286;-60
2021/07/01 03:49:12;;;;;;;1.07;1.07;;;;;;;13.93;100.00;96254.09;5076706;28;20218;-61
2021/07/01 03:51:38;;;;;;;0.90;0.90;;;;;;;14.12;100.00;96253.47;5076094;28;20240;-62
2021/07/01 03:54:04;;;;;;;2.50;0.77;;;;;;;14.09;100.00;96256.63;5082153;28;20443;-60
2021/07/01 03:56:40;;;;;;;0.80;0.80;;;;;;;14.25;100.00;96255.72;5095974;28;20248;-61
2021/07/01 03:59:07;;;;;;;4.73;0.97;;;;;;;14.25;100.00;96263.66;5076325;28;20436;-60
2021/07/01 04:01:33;;;;;;;1.27;1.00;;;;;;;14.15;100.00;96263.53;5075933;28;20412;-60
2021/07/01 04:03:58;;;;;;;2.13;0.90;;;;;;;13.88;100.00;96264.56;5076341;28;20421;-60
2021/07/01 04:06:24;;;;;;;2.30;0.83;;;;;;;14.14;100.00;96269.88;5076103;28;20174;-61
2021/07/01 04:08:49;;;;;;;0.93;0.93;;;;;;;14.39;100.00;96270.16;5076114;28;20181;-60
2021/07/01 04:11:14;;;;;;;1.50;1.00;;;;;;;14.50;100.00;96281.59;5076105;28;20660;-60
2021/07/01 04:13:40;;;;;;;1.40;1.30;;;;;;;14.09;100.00;96279.59;5095862;28;20190;-61
2021/07/01 04:16:05;;;;;;;1.77;1.20;;;;;;;14.07;100.00;96279.88;5081630;28;20183;-60
2021/07/01 04:18:30;;;;;;;1.00;1.00;;;;;;;14.07;100.00;96274.56;5075906;28;20179;-62
2021/07/01 04:20:56;;;;;;;1.53;0.90;;;;;;;13.94;100.00;96276.81;5075763;28;20194;-60
2021/07/01 04:23:21;;;;;;;1.43;1.10;;;;;;;14.15;100.00;96279.41;5094496;28;20551;-61
2021/07/01 04:25:51;;;;;;;1.40;0.93;;;;;;;14.44;100.00;96288.69;5096364;28;20185;-61
2021/07/01 04:28:16;;;;;;;3.70;1.20;;;;;;;14.10;100.00;96291.75;5096219;28;20162;-61
2021/07/01 04:30:42;;;;;;;1.30;1.20;;;;;;;14.16;100.00;96288.94;5095792;28;20419;-62
2021/07/01 04:33:07;;;;;;;1.40;1.30;;;;;;;14.05;100.00;96289.88;5095507;28;20165;-62
2021/07/01 04:35:33;;;;;;;1.27;1.20;;;;;;;14.11;100.00;96280.94;5095877;28;20170;-60
2021/07/01 04:37:58;;;;;;;0.90;0.90;;;;;;;13.77;100.00;96284.81;5086452;28;20184;-61
2021/07/01 04:40:23;;;;;;;1.27;1.20;;;;;;;14.05;100.00;96284.59;5095719;28;20170;-61
2021/07/01 04:42:49;;;;;;;2.73;1.37;;;;;;;14.00;100.00;96281.91;5095290;28;20540;-61
2021/07/01 04:45:14;;;;;;;1.40;1.30;;;;;;;14.10;100.00;96289.13;5085744;28;20218;-60
2021/07/01 04:47:40;;;;;;;2.30;1.30;;;;;;;13.91;100.00;96290.50;5057445;28;20182;-62
2021/07/01 04:50:07;;;;;;;1.50;1.40;;;;;;;13.99;100.00;96290.88;5075405;28;20674;-60
2021/07/01 04:52:32;;;;;;;1.73;1.63;;;;;;;14.05;100.00;96295.16;5074907;28;20465;-61
2021/07/01 04:54:58;;;;;;;1.40;1.30;;;;;;;13.97;100.00;96295.59;5075225;28;20924;-60
2021/07/01 04:57:23;;;;;;;1.30;1.30;;;;;;;14.09;100.00;96292.81;5075190;28;20202;-60
2021/07/01 04:59:49;;;;;;;1.53;1.47;;;;;;;13.93;100.00;96289.19;5082891;28;20186;-62
2021/07/01 05:02:15;;;;;;;1.50;1.40;;;;;;;14.15;100.00;96286.56;5095014;28;20163;-62
2021/07/01 05:04:40;;;;;;;1.83;1.47;;;;;;;13.97;100.00;96292.94;5095199;28;20182;-61
2021/07/01 05:07:05;;;;;;;1.60;1.50;;;;;;;14.13;100.00;96286.78;5095400;28;20416;-61
2021/07/01 05:09:31;;;;;;;1.40;1.23;;;;;;;14.28;100.00;96292.25;5095143;28;20198;-60
2021/07/01 05:11:56;;;;;;;2.83;1.50;;;;;;;14.26;100.00;96296.16;5095084;28;20209;-61
2021/07/01 05:14:21;;;;;;;1.60;1.50;;;;;;;14.22;100.00;96295.06;5088951;28;20199;-60
2021/07/01 05:16:48;;;;;;;4.30;1.50;;;;;;;14.30;100.00;96289.34;5040485;28;20175;-62
2021/07/01 05:19:13;;;;;;;1.27;1.27;;;;;;;14.19;100.00;96285.78;5074800;28;20174;-60
2021/07/01 05:21:38;;;;;;;2.57;1.60;;;;;;;14.38;100.00;96297.63;5074335;28;20763;-61
2021/07/01 05:24:05;;;;;;;1.37;1.37;;;;;;;14.68;100.00;96296.28;5074851;28;20679;-60
2021/07/01 05:26:30;;;;;;;3.27;1.80;;;;;;;14.31;100.00;96293.59;5074667;28;20648;-62
2021/07/01 05:28:56;;;;;;;1.90;1.63;;;;;;;14.34;100.00;96299.19;5079104;28;20420;-60
2021/07/01 05:31:21;;;;;;;1.90;1.80;;;;;;;14.62;100.00;96295.44;5094714;28;20206;-60
2021/07/01 05:33:46;;;;;;;4.63;1.50;;;;;;;14.69;100.00;96300.53;5093395;28;20194;-60
2021/07/01 05:36:12;;;;;;;1.67;1.10;;;;;;;14.54;100.00;96300.41;5094805;28;20177;-61
2021/07/01 05:38:38;;;;;;;1.93;1.40;;;;;;;14.43;100.00;96300.31;5094454;28;20644;-62
2021/07/01 05:41:03;;;;;;;1.47;1.37;;;;;;;14.36;100.00;96293.66;5094841;28;20487;-62
2021/07/01 05:43:29;;;;;;;1.50;1.40;;;;;;;14.42;100.00;96296.06;5090959;28;20494;-60
2021/07/01 05:45:55;;;;;;;1.73;1.10;;;;;;;14.38;100.00;96300.25;5074347;28;20693;-62
2021/07/01 05:48:22;;;;;;;2.73;2.03;;;;;;;14.51;100.00;96299.06;5074350;28;20175;-60
2021/07/01 05:51:00;;;;;;;1.20;1.20;;;;;;;14.84;100.00;96293.50;5074247;28;20175;-60
2021/07/01 05:53:34;;;;;;;1.20;1.17;;;;;;;14.80;100.00;96299.56;5073774;28;20429;-62
2021/07/01 05:55:59;;;;;;;1.93;1.83;;;;;;;14.69;100.00;96296.06;5074310;28;20409;-61
2021/07/01 05:58:25;;;;;;;1.50;1.40;;;;;;;14.84;100.00;96309.38;5078518;28;20416;-61
2021/07/01 06:00:50;;;;;;;1.50;1.40;;;;;;;14.83;100.00;96302.50;5077160;28;20175;-61
2021/07/01 06:03:16;;;;;;;1.50;1.40;;;;;;;14.85;100.00;96307.53;5072484;28;20551;-61
2021/07/01 06:05:45;;;;;;;1.67;1.57;;;;;;;14.52;100.00;96308.59;5073903;28;20228;-60
2021/07/01 06:08:12;;;;;;;2.47;1.93;;;;;;;14.50;100.00;96310.69;5055919;28;20181;-60
2021/07/01 06:10:44;;;;;;;2.53;1.67;;;;;;;14.63;100.00;96310.28;5055986;28;20821;-64
2021/07/01 06:13:11;;;;;;;3.73;1.63;;;;;;;14.77;100.00;96308.78;5073400;28;20918;-60
2021/07/01 06:15:37;;;;;;;1.73;1.63;;;;;;;14.75;100.00;96318.03;5073737;28;20441;-60
2021/07/01 06:18:03;;;;;;;2.17;2.07;;;;;;;14.67;100.00;96329.06;5081796;28;20429;-65
2021/07/01 06:20:29;;;;;;;2.23;1.60;;;;;;;14.54;100.00;96321.56;5073886;28;20496;-60
2021/07/01 06:22:54;;;;;;;2.10;1.57;;;;;;;14.54;100.00;96316.25;5073229;28;20462;-60
2021/07/01 06:25:20;;;;;;;1.83;1.73;;;;;;;14.65;100.00;96317.94;5073430;28;20787;-65
2021/07/01 06:27:46;;;;;;;4.63;1.60;;;;;;;14.72;100.00;96321.19;5055730;28;20265;-60
2021/07/01 06:32:45;;;;;;;1.47;1.37;;;;;;;14.80;100.00;96316.22;5077137;28;20244;-65
2021/07/01 06:35:37;;;;;;;2.57;1.73;;;;;;;14.75;100.00;96325.97;5074110;28;20526;-64
2021/07/01 06:38:09;;;;;;;1.40;1.30;;;;;;;14.84;100.00;96329.75;5069025;28;20455;-64
2021/07/01 06:40:35;;;;;;;1.60;1.50;;;;;;;15.13;100.00;96329.16;5080453;28;20408;-64
2021/07/01 06:43:02;;;;;;;1.40;1.30;;;;;;;15.19;100.00;96330.81;5092940;28;20403;-64
2021/07/01 06:45:28;;;;;;;1.37;1.27;;;;;;;15.19;100.00;96325.50;5093183;28;20894;-60
2021/07/01 06:47:56;;;;;;;2.50;1.73;;;;;;;15.29;100.00;96333.50;5079973;28;20425;-60
2021/07/01 06:50:24;;;;;;;1.70;1.30;;;;;;;15.34;100.00;96330.09;5073541;28;20167;-60
2021/07/01 06:52:55;;;;;;;1.40;1.30;;;;;;;15.53;100.00;96331.28;5080698;28;20460;-60
2021/07/01 06:55:21;;;;;;;1.50;1.30;;;;;;;15.36;100.00;96328.78;5084815;28;20771;-59
2021/07/01 06:57:47;;;;;;;1.50;1.40;;;;;;;15.60;100.00;96334.50;5073199;28;20409;-65
2021/07/01 07:00:15;;;;;;;1.67;1.57;;;;;;;15.40;100.00;96334.34;5073261;28;20428;-65
2021/07/01 07:02:41;;;;;;;2.27;1.70;;;;;;;15.58;100.00;96346.44;5072839;28;20167;-58
2021/07/01 07:05:16;;;;;;;1.90;1.80;;;;;;;15.57;100.00;96335.03;5073055;28;20421;-58
2021/07/01 07:07:43;;;;;;;2.10;2.00;;;;;;;15.64;99.78;96332.94;5073106;28;20432;-61
2021/07/01 07:10:10;;;;;;;2.10;2.00;;;;;;;15.42;100.00;96337.59;5080387;28;20481;-61
2021/07/01 07:12:40;;;;;;;4.70;1.90;;;;;;;15.78;99.81;96336.72;5075551;28;20488;-58
2021/07/01 07:15:08;;;;;;;1.90;1.80;;;;;;;15.79;100.00;96337.50;5093320;28;20430;-67
2021/07/01 07:17:36;;;;;;;1.90;1.80;;;;;;;15.96;99.13;96340.78;5093367;28;20408;-58
2021/07/01 07:20:03;;;;;;;1.97;1.80;;;;;;;15.95;98.73;96339.97;5093227;28;20411;-58
2021/07/01 07:22:30;;;;;;;2.70;2.10;;;;;;;15.94;97.78;96335.72;5074652;28;20843;-58
2021/07/01 07:25:03;;;;;;;2.60;2.37;;;;;;;15.97;97.26;96334.41;5088172;28;20441;-67
2021/07/01 07:27:30;;;;;;;2.40;2.20;;;;;;;15.88;96.68;96344.72;5073065;28;20414;-58
2021/07/01 07:29:57;;;;;;;3.40;2.20;;;;;;;15.97;96.77;96342.34;5085893;28;20762;-64
2021/07/01 07:32:25;;;;;;;2.43;2.23;;;;;;;15.96;97.80;96357.44;5092766;28;20444;-58
2021/07/01 07:34:51;;;;;;;2.80;2.60;;;;;;;16.10;96.41;96355.94;5092878;28;20427;-62
2021/07/01 07:37:17;;;;;;;2.40;2.30;;;;;;;16.51;94.86;96346.25;5093018;28;20947;-62
2021/07/01 07:39:44;;;;;;;2.10;2.00;;;;;;;16.51;94.28;96351.56;5088052;28;20179;-59
2021/07/01 07:42:11;;;;;;;2.33;2.10;;;;;;;16.44;94.67;96353.63;5080530;28;20446;-59
2021/07/01 07:44:39;;;;;;;2.60;2.17;;;;;;;16.37;94.91;96345.94;5092953;28;20540;-59
2021/07/01 07:47:05;;;;;;;2.00;1.90;;;;;;;16.14;94.46;96348.25;5093192;28;20447;-59
2021/07/01 07:49:30;;;;;;;1.90;1.80;;;;;;;16.13;95.68;96344.81;5092843;28;20496;-63
2021/07/01 07:52:02;;;;;;;2.20;2.00;;;;;;;16.48;95.59;96338.03;5084063;28;21041;-63
2021/07/01 07:54:33;;;;;;;3.00;2.47;;;;;;;16.56;94.45;96340.16;5080224;28;20226;-62
2021/07/01 07:57:00;;;;;;;2.70;2.50;;;;;;;16.25;93.75;96341.94;5080710;28;20421;-59
2021/07/01 07:59:30;;;;;;;2.27;2.07;;;;;;;16.08;94.26;96341.34;5081345;28;20423;-59
2021/07/01 08:02:00;;;;;;;2.60;2.40;;;;;;;15.99;95.00;96345.53;5083635;28;20416;-64
2021/07/01 08:04:27;;;;;;;2.43;2.33;;;;;;;16.38;94.08;96349.38;5080967;28;20448;-61
2021/07/01 08:06:55;;;;;;;2.60;2.40;;;;;;;16.60;93.04;96344.66;5083929;28;20446;-61
2021/07/01 08:09:27;;;;;;;2.60;2.20;;;;;;;16.53;92.79;96348.63;5081214;28;20489;-58
2021/07/01 08:11:54;;;;;;;2.50;2.40;;;;;;;16.48;93.09;96345.97;5061073;28;20887;-61
2021/07/01 08:14:22;;;;;;;2.90;2.70;;;;;;;16.78;94.12;96346.81;5080135;28;20523;-61
2021/07/01 08:16:49;;;;;;;3.30;3.00;;;;;;;16.56;91.70;96348.13;5061542;28;20497;-64
2021/07/01 08:19:15;;;;;;;3.10;2.90;;;;;;;16.71;90.69;96348.94;5080551;28;20458;-62
2021/07/01 08:21:41;;;;;;;3.23;2.37;;;;;;;16.46;90.30;96349.66;5060685;28;20459;-62
2021/07/01 08:24:09;;;;;;;3.13;2.70;;;;;;;16.65;91.89;96347.31;5079468;28;20217;-62
2021/07/01 08:26:35;;;;;;;2.60;2.40;;;;;;;16.56;89.64;96345.47;5080142;28;20621;-61
2021/07/01 08:29:01;;;;;;;2.90;2.60;;;;;;;16.38;91.25;96349.38;5079355;28;20416;-59
2021/07/01 08:31:29;;;;;;;2.90;2.70;;;;;;;16.60;88.85;96343.84;5081136;28;20874;-63
2021/07/01 08:33:57;;;;;;;2.77;2.57;;;;;;;16.50;90.04;96349.97;5073809;28;20267;-62
2021/07/01 08:36:25;;;;;;;2.77;2.57;;;;;;;16.77;89.41;96344.41;5088868;28;20540;-62
2021/07/01 08:38:55;;;;;;;3.00;2.80;;;;;;;16.67;88.93;96350.50;5077841;28;20511;-60
2021/07/01 08:41:26;;;;;;;3.20;3.00;;;;;;;16.57;89.77;96347.06;5092392;28;20404;-62
2021/07/01 08:43:59;;;;;;;2.83;2.33;;;;;;;16.71;89.79;96350.78;5091841;28;20439;-58
2021/07/01 08:46:29;;;;;;;2.97;2.73;;;;;;;16.88;87.51;96356.63;5091812;28;20423;-62
2021/07/01 08:48:59;;;;;;;3.47;2.57;;;;;;;16.69;88.29;96350.25;5092326;28;21159;-62
2021/07/01 08:51:31;;;;;;;2.93;2.63;;;;;;;16.14;89.68;96348.25;5092004;28;20451;-61
2021/07/01 08:54:14;;;;;;;3.10;2.80;;;;;;;16.36;89.54;96349.63;5085507;28;20460;-62
2021/07/01 08:56:40;;;;;;;4.50;2.90;;;;;;;16.00;91.39;96355.09;5083016;28;20459;-63
2021/07/01 08:59:07;;;;;;;6.33;2.70;;;;;;;16.25;91.98;96355.19;5084842;28;20794;-62
2021/07/01 09:01:36;;;;;;;3.47;3.07;;;;;;;16.18;92.88;96371.31;5083520;28;20428;-65
2021/07/01 09:04:03;;;;;;;2.90;2.70;;;;;;;16.48;90.25;96364.53;5082919;28;20435;-59
2021/07/01 09:06:37;;;;;;;3.40;3.10;;;;;;;16.78;89.64;96375.19;5077930;28;20515;-62
2021/07/01 09:09:06;;;;;;;4.00;3.67;;;;;;;16.76;88.86;96377.34;5083896;28;20428;-64
2021/07/01 09:11:35;;;;;;;3.40;3.03;;;;;;;16.50;90.73;96370.38;5091081;28;20455;-68
2021/07/01 09:14:04;;;;;;;3.00;2.80;;;;;;;16.29;89.97;96370.31;5091600;28;20975;-72
2021/07/01 09:16:31;;;;;;;3.60;3.30;;;;;;;16.44;90.78;96361.59;5081351;28;20420;-66
2021/07/01 09:18:59;;;;;;;3.07;2.87;;;;;;;16.26;91.85;96365.53;5090848;28;20859;-69
2021/07/01 09:21:25;;;;;;;3.50;3.20;;;;;;;16.56;91.27;96369.34;5080004;28;20447;-66
2021/07/01 09:23:52;;;;;;;3.20;3.00;;;;;;;16.40;89.09;96369.28;5079367;28;20445;-68
2021/07/01 09:26:23;;;;;;;3.00;2.80;;;;;;;16.14;90.01;96364.94;5079316;28;20413;-67
2021/07/01 09:28:49;;;;;;;3.00;2.80;;;;;;;16.21;90.69;96370.03;5086729;28;20420;-65
2021/07/01 09:31:17;;;;;;;2.90;2.70;;;;;;;16.13;91.64;96373.16;5082557;28;20464;-65
2021/07/01 09:33:44;;;;;;;3.50;3.20;;;;;;;16.26;91.63;96368.19;5078386;28;20456;-65
2021/07/01 09:36:10;;;;;;;3.67;3.37;;;;;;;16.54;91.39;96366.94;5070914;28;20496;-66
2021/07/01 09:38:37;;;;;;;3.73;3.43;;;;;;;16.59;89.63;96364.31;5070846;28;20857;-62
2021/07/01 09:41:03;;;;;;;5.33;3.00;;;;;;;16.90;87.18;96368.59;5070962;28;20401;-65
2021/07/01 09:43:28;;;;;;;2.60;2.40;;;;;;;17.02;86.70;96368.31;5070657;28;20440;-64
2021/07/01 09:45:54;;;;;;;3.13;2.93;;;;;;;17.11;86.97;96372.03;5070420;28;20171;-64
2021/07/01 09:48:24;;;;;;;2.93;2.47;;;;;;;17.31;85.50;96374.69;5080572;28;20178;-66
2021/07/01 09:50:51;;;;;;;4.13;2.80;;;;;;;17.17;84.53;96374.44;5074030;28;20429;-63
2021/07/01 09:53:29;;;;;;;2.63;2.43;;;;;;;17.04;86.83;96374.97;5070354;28;21310;-63
2021/07/01 09:55:55;;;;;;;2.50;2.33;;;;;;;17.05;87.04;96375.75;5070848;28;20411;-62
2021/07/01 09:58:27;;;;;;;2.30;2.00;;;;;;;16.99;86.67;96382.13;5070273;28;20501;-61
2021/07/01 10:00:53;;;;;;;2.50;2.30;;;;;;;17.15;84.10;96383.72;5070598;28;20412;-61
2021/07/01 10:03:19;;;;;;;2.20;2.10;;;;;;;16.88;84.30;96372.56;5073538;28;20440;-64
2021/07/01 10:05:45;;;;;;;2.03;1.93;;;;;;;16.86;85.45;96367.53;5082806;28;20452;-60
2021/07/01 10:08:11;;;;;;;2.67;2.37;;;;;;;17.10;85.90;96375.75;5074789;28;20178;-65
2021/07/01 10:10:42;;;;;;;2.57;2.37;;;;;;;17.35;86.08;96368.56;5090259;28;20424;-65
2021/07/01 10:13:11;;;;;;;2.50;2.30;;;;;;;17.62;83.71;96370.94;5090353;28;20209;-60
2021/07/01 10:15:38;;;;;;;2.23;2.13;;;;;;;17.77;83.70;96373.56;5090560;28;20412;-59
2021/07/01 10:18:08;;;;;;;2.40;2.20;;;;;;;17.93;82.17;96375.13;5090626;28;20764;-59
2021/07/01 10:20:38;;;;;;;3.53;2.40;;;;;;;17.45;83.06;96379.19;5090031;28;20408;-59
2021/07/01 10:23:17;;;;;;;4.03;1.90;;;;;;;17.45;81.08;96384.50;5083512;28;20468;-59
2021/07/01 10:25:44;;;;;;;2.10;2.00;;;;;;;17.44;81.22;96385.56;5086308;28;20878;-60
2021/07/01 10:28:12;;;;;;;5.40;1.70;;;;;;;17.41;80.42;96386.09;5070163;28;20448;-58
2021/07/01 10:30:41;;;;;;;1.73;1.60;;;;;;;17.52;80.51;96383.47;5088661;28;20420;-59
2021/07/01 10:33:22;;;;;;;2.03;1.50;;;;;;;17.44;81.66;96387.41;5089661;28;21001;-57
2021/07/01 10:35:48;;;;;;;1.60;1.50;;;;;;;16.99;83.14;96388.25;5090294;28;20420;-59
2021/07/01 10:38:14;;;;;;;1.57;1.47;;;;;;;17.19;83.22;96390.09;5089963;28;20974;-58
2021/07/01 10:40:47;;;;;;;2.00;1.80;;;;;;;17.19;82.08;96387.44;5090377;28;20544;-59
2021/07/01 10:43:16;;;;;;;3.23;1.80;;;;;;;17.06;82.86;96385.31;5089867;28;20407;-57
2021/07/01 10:49:04;;;;;;;2.47;2.27;;;;;;;16.94;84.40;96376.81;5082406;28;20420;-59
2021/07/01 10:51:30;;;;;;;1.60;1.50;;;;;;;16.84;84.75;96382.91;5073068;28;20467;-58
2021/07/01 10:54:12;;;;;;;2.03;1.80;;;;;;;17.11;85.42;96391.44;5077553;22;20494;-59
2021/07/01 10:57:29;;;;;;;2.00;1.90;;;;;;;16.84;88.58;96392.72;5050272;28;20178;-59
2021/07/01 10:59:54;;;;;;;2.93;1.73;;;;;;;16.76;91.78;96390.63;5049820;28;20409;-59
2021/07/01 11:02:31;;;;;;;1.60;1.50;;;;;;;16.95;90.81;96397.00;5050740;28;20485;-58
2021/07/01 11:04:59;;;;;;;2.07;1.73;;;;;;;17.16;90.42;96409.19;5045836;28;20253;-59
2021/07/01 11:07:25;;;;;;;1.70;1.60;;;;;;;16.70;89.99;96399.63;5038460;28;20418;-59
2021/07/01 11:09:54;;;;;;;1.57;1.47;;;;;;;16.96;90.56;96398.56;5051716;28;20449;-60
2021/07/01 11:12:21;;;;;;;2.07;1.97;;;;;;;16.97;91.24;96406.28;5047312;28;20497;-58
2021/07/01 11:14:49;;;;;;;1.90;1.80;;;;;;;17.12;90.14;96402.84;5033224;28;20909;-58
2021/07/01 11:17:16;;;;;;;3.03;2.20;;;;;;;17.19;88.09;96406.03;5033133;28;20410;-60
2021/07/01 11:19:46;;;;;;;2.00;1.90;;;;;;;16.92;90.25;96405.50;5033392;28;20403;-60
2021/07/01 11:22:13;;;;;;;2.00;1.90;;;;;;;16.96;90.34;96409.19;5033137;28;20395;-60
2021/07/01 11:24:44;;;;;;;2.20;1.83;;;;;;;16.63;90.49;96407.81;5033045;28;20453;-60
2021/07/01 11:27:11;;;;;;;2.50;2.30;;;;;;;16.69;90.75;96409.41;5037410;28;20868;-60
2021/07/01 11:29:40;;;;;;;2.10;2.00;;;;;;;16.79;90.27;96404.16;5053052;28;20508;-60
2021/07/01 11:32:24;;;;;;;2.87;2.57;;;;;;;16.88;89.02;96415.03;5054045;28;20442;-59
2021/07/01 11:34:52;;;;;;;2.40;2.20;;;;;;;16.77;89.45;96408.91;5056878;28;20433;-60